createdAt,value
2022-09-21T00:01:28.036Z,6.18
2022-09-21T00:03:58.562Z,3.70
2022-09-21T00:06:28.400Z,8.10
2022-09-21T00:08:56.247Z,12.10
2022-09-21T00:11:28.578Z,9.70
2022-09-21T00:14:03.784Z,8.88
2022-09-21T00:16:34.289Z,4.60
2022-09-21T00:19:01.913Z,6.03
2022-09-21T00:21:29.778Z,4.18
2022-09-21T00:23:58.707Z,10.57
2022-09-21T00:26:27.059Z,8.40
2022-09-21T00:28:57.239Z,13.70
2022-09-21T00:31:24.787Z,15.90
2022-09-21T00:33:52.934Z,24.33
2022-09-21T00:36:24.067Z,12.57
2022-09-21T00:38:54.621Z,9.57
2022-09-21T00:41:23.271Z,7.65
2022-09-21T00:44:22.807Z,12.38
2022-09-21T00:46:53.053Z,12.80
2022-09-21T00:49:21.229Z,24.52
2022-09-21T00:51:50.503Z,13.52
2022-09-21T00:54:31.936Z,15.90
2022-09-21T00:57:01.059Z,20.02
2022-09-21T00:59:33.446Z,19.25
2022-09-21T01:02:01.037Z,21.25
2022-09-21T01:04:28.769Z,23.40
2022-09-21T01:06:58.428Z,15.68
2022-09-21T01:09:26.200Z,14.18
2022-09-21T01:12:33.341Z,14.90
2022-09-21T01:15:46.659Z,9.45
2022-09-21T01:18:46.212Z,13.32
2022-09-21T01:21:25.886Z,11.82
2022-09-21T01:24:27.006Z,12.30
2022-09-21T01:27:29.682Z,8.82
2022-09-21T01:30:06.651Z,8.60
2022-09-21T01:32:59.301Z,21.73
2022-09-21T01:35:49.503Z,13.52
2022-09-21T01:38:34.921Z,6.50
2022-09-21T01:41:06.499Z,5.30
2022-09-21T01:43:42.887Z,8.55
2022-09-21T01:46:17.976Z,6.80
2022-09-21T01:48:51.510Z,8.80
2022-09-21T01:51:21.601Z,9.07
2022-09-21T01:53:57.768Z,20.23
2022-09-21T01:56:32.624Z,10.43
2022-09-21T01:59:21.086Z,7.68
2022-09-21T02:02:08.693Z,17.80
2022-09-21T02:04:36.647Z,9.52
2022-09-21T02:07:04.253Z,10.15
2022-09-21T02:09:32.209Z,18.67
2022-09-21T02:12:00.701Z,16.83
2022-09-21T02:14:31.569Z,11.90
2022-09-21T02:17:23.008Z,30.08
2022-09-21T02:20:03.156Z,13.95
2022-09-21T02:22:45.592Z,20.63
2022-09-21T02:25:17.626Z,24.35
2022-09-21T02:27:55.557Z,17.52
2022-09-21T02:30:25.737Z,25.67
2022-09-21T02:33:22.246Z,35.58
2022-09-21T02:35:51.523Z,33.92
2022-09-21T02:39:04.514Z,28.95
2022-09-21T02:41:48.456Z,32.05
2022-09-21T02:44:31.878Z,24.52
2022-09-21T02:47:12.446Z,23.95
2022-09-21T02:49:51.153Z,27.02
2022-09-21T02:52:19.703Z,13.13
2022-09-21T02:54:51.717Z,21.27
2022-09-21T02:57:22.175Z,19.13
2022-09-21T02:59:50.871Z,18.55
2022-09-21T03:02:17.998Z,14.00
2022-09-21T03:04:48.311Z,10.23
2022-09-21T03:07:16.804Z,23.15
2022-09-21T03:09:44.281Z,22.27
2022-09-21T03:12:11.519Z,17.77
2022-09-21T03:14:38.681Z,15.25
2022-09-21T03:17:05.768Z,19.75
2022-09-21T03:19:33.104Z,22.70
2022-09-21T03:22:00.290Z,17.27
2022-09-21T03:24:45.768Z,18.70
2022-09-21T03:27:18.575Z,18.60
2022-09-21T03:29:46.795Z,21.58
2022-09-21T03:32:14.699Z,22.10
2022-09-21T03:34:42.054Z,19.15
2022-09-21T03:37:09.917Z,25.45
2022-09-21T03:39:37.157Z,18.98
2022-09-21T03:42:04.502Z,22.45
2022-09-21T03:44:31.599Z,23.00
2022-09-21T03:46:58.827Z,16.35
2022-09-21T03:49:26.174Z,25.73
2022-09-21T03:51:53.961Z,24.45
2022-09-21T03:54:21.052Z,19.80
2022-09-21T03:56:48.090Z,22.70
2022-09-21T03:59:15.230Z,20.00
2022-09-21T04:01:42.645Z,30.73
2022-09-21T04:04:09.841Z,30.88
2022-09-21T04:06:36.940Z,28.25
2022-09-21T04:09:04.191Z,32.63
2022-09-21T04:11:31.793Z,52.85
2022-09-21T04:13:59.408Z,40.20
2022-09-21T04:16:27.583Z,35.60
2022-09-21T04:18:55.059Z,27.33
2022-09-21T04:21:22.755Z,42.00
2022-09-21T04:23:50.316Z,32.22
2022-09-21T04:26:24.413Z,30.10
2022-09-21T04:28:53.183Z,28.27
2022-09-21T04:31:21.129Z,30.88
2022-09-21T04:33:50.179Z,27.27
2022-09-21T04:36:19.333Z,26.40
2022-09-21T04:38:47.352Z,35.65
2022-09-21T04:41:15.972Z,23.83
2022-09-21T04:43:45.524Z,25.52
2022-09-21T04:46:16.488Z,29.23
2022-09-21T04:48:44.373Z,29.38
2022-09-21T04:51:12.809Z,30.90
2022-09-21T04:53:41.979Z,27.13
2022-09-21T04:56:12.599Z,18.20
2022-09-21T04:58:39.984Z,19.95
2022-09-21T05:01:07.298Z,19.88
2022-09-21T05:03:34.754Z,26.02
2022-09-21T05:06:01.938Z,13.35
2022-09-21T05:08:47.957Z,12.85
2022-09-21T05:11:18.589Z,5.68
2022-09-21T05:13:46.425Z,8.40
2022-09-21T05:16:14.816Z,8.10
2022-09-21T05:18:42.223Z,14.03
2022-09-21T05:21:14.282Z,25.00
2022-09-21T05:23:41.845Z,12.50
2022-09-21T05:26:09.030Z,8.15
2022-09-21T05:28:40.102Z,11.10
2022-09-21T05:31:39.912Z,7.95
2022-09-21T05:34:38.623Z,8.10
2022-09-21T05:37:26.848Z,8.60
2022-09-21T05:39:54.370Z,11.13
2022-09-21T05:42:21.754Z,2.45
2022-09-21T05:44:50.001Z,8.40
2022-09-21T05:48:15.471Z,7.00
2022-09-21T05:51:03.592Z,10.57
2022-09-21T05:53:33.255Z,15.63
2022-09-21T05:56:16.404Z,11.32
2022-09-21T05:59:47.353Z,9.90
2022-09-21T06:02:43.936Z,7.95
2022-09-21T06:05:13.694Z,16.63
2022-09-21T06:07:41.500Z,13.27
2022-09-21T06:10:11.556Z,23.52
2022-09-21T06:12:39.012Z,11.98
2022-09-21T06:15:10.066Z,8.15
2022-09-21T06:17:37.283Z,3.58
2022-09-21T06:20:06.535Z,8.02
2022-09-21T06:22:34.687Z,4.28
2022-09-21T06:25:01.907Z,9.40
2022-09-21T06:27:29.324Z,1.98
2022-09-21T06:29:56.867Z,4.97
2022-09-21T06:32:24.211Z,12.10
2022-09-21T06:34:51.392Z,14.77
2022-09-21T06:37:18.560Z,2.92
2022-09-21T06:39:45.617Z,6.25
2022-09-21T06:42:12.736Z,13.43
2022-09-21T06:44:41.339Z,3.58
2022-09-21T06:47:08.565Z,9.00
2022-09-21T06:49:39.172Z,9.10
2022-09-21T06:52:09.072Z,16.67
2022-09-21T06:54:36.215Z,10.10
2022-09-21T06:57:03.403Z,13.73
2022-09-21T06:59:30.551Z,12.55
2022-09-21T07:01:57.907Z,22.70
2022-09-21T07:04:25.476Z,20.92
2022-09-21T07:06:52.985Z,14.52
2022-09-21T07:12:07.535Z,9.52
2022-09-21T07:14:34.726Z,3.28
2022-09-21T07:17:01.776Z,10.10
2022-09-21T07:19:28.830Z,9.60
2022-09-21T07:21:55.943Z,13.27
2022-09-21T07:24:23.026Z,5.88
2022-09-21T07:26:50.139Z,5.22
2022-09-21T07:29:17.198Z,11.52
2022-09-21T07:31:44.742Z,1.50
2022-09-21T07:34:11.917Z,1.85
2022-09-21T07:36:39.274Z,9.80
2022-09-21T07:39:08.859Z,7.97
2022-09-21T07:41:36.601Z,5.35
2022-09-21T07:44:03.907Z,8.85
2022-09-21T07:46:31.065Z,11.70
2022-09-21T07:48:58.189Z,3.08
2022-09-21T07:51:25.221Z,6.93
2022-09-21T07:53:56.234Z,19.65
2022-09-21T07:56:24.687Z,5.60
2022-09-21T07:59:06.969Z,8.50
2022-09-21T08:01:40.682Z,13.02
2022-09-21T08:04:10.411Z,2.92
2022-09-21T08:06:41.712Z,2.20
2022-09-21T08:09:08.930Z,6.95
2022-09-21T08:11:37.114Z,7.55
2022-09-21T08:14:04.766Z,4.13
2022-09-21T08:16:33.172Z,1.55
2022-09-21T08:19:01.582Z,4.23
2022-09-21T08:21:28.612Z,3.78
2022-09-21T08:23:55.847Z,8.95
2022-09-21T08:26:24.053Z,23.95
2022-09-21T08:28:53.190Z,6.50
2022-09-21T08:31:23.504Z,6.22
2022-09-21T08:33:51.766Z,7.47
2022-09-21T08:36:19.628Z,5.53
2022-09-21T08:38:47.741Z,9.55
2022-09-21T08:41:49.427Z,0.63
2022-09-21T08:44:32.715Z,16.33
2022-09-21T08:47:11.835Z,4.72
2022-09-21T08:52:16.342Z,24.02
2022-09-21T08:54:52.366Z,4.88
2022-09-21T08:57:30.335Z,0.45
2022-09-21T09:00:00.277Z,3.67
2022-09-21T09:02:55.458Z,4.15
2022-09-21T09:05:38.146Z,1.60
2022-09-21T09:08:31.173Z,7.18
2022-09-21T09:11:45.236Z,0.40
2022-09-21T09:14:36.485Z,9.75
2022-09-21T09:17:52.111Z,4.47
2022-09-21T09:20:35.947Z,3.35
2022-09-21T09:23:27.630Z,1.23
2022-09-21T09:26:36.520Z,5.55
2022-09-21T09:29:38.220Z,6.32
2022-09-21T09:32:13.781Z,4.82
2022-09-21T09:34:57.344Z,14.45
2022-09-21T09:37:33.199Z,8.98
2022-09-21T09:40:01.099Z,5.90
2022-09-21T09:42:34.160Z,7.15
2022-09-21T09:45:39.700Z,15.90
2022-09-21T09:48:28.139Z,2.95
2022-09-21T09:50:55.389Z,8.05
2022-09-21T09:53:25.987Z,6.35
2022-09-21T09:55:57.907Z,3.13
2022-09-21T09:58:56.960Z,3.67
2022-09-21T10:01:46.195Z,4.00
2022-09-21T10:04:16.879Z,3.22
2022-09-21T10:06:46.808Z,1.02
2022-09-21T10:09:32.848Z,13.52
2022-09-21T10:12:18.383Z,13.32
2022-09-21T10:14:51.868Z,2.33
2022-09-21T10:17:19.593Z,6.72
2022-09-21T10:19:47.102Z,1.95
2022-09-21T10:22:19.545Z,7.80
2022-09-21T10:24:50.928Z,7.15
2022-09-21T10:27:24.264Z,3.97
2022-09-21T10:29:51.408Z,7.75
2022-09-21T10:32:25.839Z,0.93
2022-09-21T10:35:06.540Z,2.10
2022-09-21T10:37:40.776Z,4.95
2022-09-21T10:40:20.424Z,2.83
2022-09-21T10:42:51.594Z,1.08
2022-09-21T10:45:25.343Z,3.17
2022-09-21T10:47:55.136Z,1.48
2022-09-21T10:50:29.302Z,0.15
2022-09-21T10:53:27.847Z,4.10
2022-09-21T10:56:16.311Z,4.25
2022-09-21T11:01:58.264Z,1.08
2022-09-21T11:04:48.872Z,3.40
2022-09-21T11:07:57.351Z,1.05
2022-09-21T11:11:13.144Z,0.75
2022-09-21T11:14:15.059Z,0.98
2022-09-21T11:17:36.113Z,3.83
2022-09-21T11:20:38.972Z,1.30
2022-09-21T11:23:30.896Z,0.43
2022-09-21T11:26:24.214Z,6.78
2022-09-21T11:29:24.498Z,6.82
2022-09-21T11:32:13.748Z,21.65
2022-09-21T11:35:09.080Z,31.30
2022-09-21T11:38:09.284Z,44.63
2022-09-21T11:41:00.033Z,34.45
2022-09-21T11:44:14.738Z,20.00
2022-09-21T11:47:22.431Z,15.50
2022-09-21T11:50:26.426Z,8.70
2022-09-21T11:53:27.538Z,10.35
2022-09-21T11:56:11.108Z,6.72
2022-09-21T11:59:07.331Z,4.22
2022-09-21T12:02:04.591Z,1.77
2022-09-21T12:04:48.065Z,4.70
2022-09-21T12:07:52.715Z,2.25
2022-09-21T12:11:15.535Z,3.20
2022-09-21T12:14:10.720Z,3.63
2022-09-21T12:17:12.481Z,2.47
2022-09-21T12:20:23.108Z,2.67
2022-09-21T12:22:59.455Z,0.93
2022-09-21T12:25:35.527Z,0.90
2022-09-21T12:28:36.943Z,2.45
2022-09-21T12:31:29.148Z,1.20
2022-09-21T12:34:20.709Z,0.30
2022-09-21T12:37:10.861Z,1.45
2022-09-21T12:39:55.976Z,2.88
2022-09-21T12:42:41.527Z,0.95
2022-09-21T12:45:28.806Z,3.92
2022-09-21T12:48:38.374Z,1.02
2022-09-21T12:51:22.284Z,1.08
2022-09-21T12:53:53.457Z,0.35
2022-09-21T12:56:42.847Z,2.20
2022-09-21T12:59:54.550Z,1.30
2022-09-21T13:02:48.022Z,2.72
2022-09-21T13:05:27.500Z,1.88
2022-09-21T13:08:11.647Z,2.42
2022-09-21T13:10:55.171Z,1.20
2022-09-21T13:13:52.722Z,0.55
2022-09-21T13:16:26.916Z,4.97
2022-09-21T13:19:22.627Z,0.98
2022-09-21T13:22:25.813Z,15.35
2022-09-21T13:25:05.296Z,3.20
2022-09-21T13:28:08.436Z,2.78
2022-09-21T13:31:09.718Z,1.30
2022-09-21T13:34:01.060Z,1.13
2022-09-21T13:36:36.071Z,1.75
2022-09-21T13:39:16.416Z,1.00
2022-09-21T13:42:03.304Z,1.17
2022-09-21T13:44:33.559Z,0.32
2022-09-21T13:47:01.544Z,0.80
2022-09-21T13:49:38.228Z,1.10
2022-09-21T13:52:36.689Z,1.75
2022-09-21T13:55:18.190Z,4.22
2022-09-21T13:57:49.937Z,1.17
2022-09-21T14:00:16.918Z,6.03
2022-09-21T14:03:23.408Z,1.95
2022-09-21T14:06:27.363Z,5.85
2022-09-21T14:09:04.688Z,3.25
2022-09-21T14:11:42.619Z,4.38
2022-09-21T14:14:18.492Z,3.80
2022-09-21T14:17:00.780Z,1.90
2022-09-21T14:19:31.430Z,3.50
2022-09-21T14:22:04.861Z,1.05
2022-09-21T14:24:44.702Z,4.53
2022-09-21T14:27:31.580Z,0.77
2022-09-21T14:30:25.189Z,2.05
2022-09-21T14:33:45.602Z,0.75
2022-09-21T14:36:22.718Z,3.03
2022-09-21T14:38:57.515Z,2.70
2022-09-21T14:41:26.521Z,1.10
2022-09-21T14:43:56.080Z,1.80
2022-09-21T14:46:53.481Z,5.93
2022-09-21T14:50:35.357Z,0.63
2022-09-21T14:53:42.775Z,3.42
2022-09-21T14:56:34.276Z,1.48
2022-09-21T14:59:22.466Z,3.67
2022-09-21T15:02:17.588Z,5.03
2022-09-21T15:05:07.683Z,8.45
2022-09-21T15:08:33.857Z,3.72
2022-09-21T15:11:41.609Z,1.55
2022-09-21T15:14:25.216Z,1.77
2022-09-21T15:16:52.430Z,5.72
2022-09-21T15:19:28.485Z,1.35
2022-09-21T15:22:22.314Z,1.77
2022-09-21T15:24:55.914Z,4.55
2022-09-21T15:27:35.277Z,6.22
2022-09-21T15:30:05.734Z,9.02
2022-09-21T15:32:41.883Z,1.52
2022-09-21T15:35:32.972Z,2.50
2022-09-21T15:38:00.683Z,5.05
2022-09-21T15:40:32.446Z,4.60
2022-09-21T15:43:06.136Z,0.52
2022-09-21T15:45:53.856Z,1.33
2022-09-21T15:48:26.521Z,2.45
2022-09-21T15:51:18.977Z,2.17
2022-09-21T15:53:51.796Z,3.15
2022-09-21T15:56:22.919Z,2.40
2022-09-21T15:58:52.618Z,2.42
2022-09-21T16:01:22.995Z,4.93
2022-09-21T16:04:06.931Z,4.57
2022-09-21T16:06:44.539Z,1.25
2022-09-21T16:09:42.268Z,3.63
2022-09-21T16:12:38.777Z,2.38
2022-09-21T16:15:31.433Z,3.78
2022-09-21T16:18:06.048Z,1.73
2022-09-21T16:20:58.157Z,0.98
2022-09-21T16:23:30.197Z,1.10
2022-09-21T16:26:00.881Z,3.63
2022-09-21T16:28:36.049Z,3.28
2022-09-21T16:31:29.223Z,2.28
2022-09-21T16:34:05.252Z,2.05
2022-09-21T16:36:41.640Z,2.97
2022-09-21T16:39:14.326Z,1.40
2022-09-21T16:41:51.344Z,3.60
2022-09-21T16:44:22.211Z,3.42
2022-09-21T16:46:59.520Z,6.65
2022-09-21T16:49:32.023Z,2.78
2022-09-21T16:52:00.687Z,4.38
2022-09-21T16:54:28.880Z,0.93
2022-09-21T16:57:00.149Z,1.83
2022-09-21T16:59:28.475Z,8.40
2022-09-21T17:01:57.748Z,2.33
2022-09-21T17:06:56.134Z,5.95
2022-09-21T17:09:46.833Z,3.85
2022-09-21T17:12:17.334Z,1.92
2022-09-21T17:14:47.042Z,1.98
2022-09-21T17:17:25.057Z,4.47
2022-09-21T17:19:53.356Z,1.67
2022-09-21T17:22:21.266Z,2.42
2022-09-21T17:24:52.077Z,1.33
2022-09-21T17:27:22.900Z,0.50
2022-09-21T17:29:53.021Z,1.65
2022-09-21T17:32:22.963Z,3.33
2022-09-21T17:34:59.080Z,1.13
2022-09-21T17:37:26.643Z,2.65
2022-09-21T17:39:53.919Z,2.95
2022-09-21T17:42:25.104Z,2.25
2022-09-21T17:45:16.456Z,1.50
2022-09-21T17:47:44.074Z,2.25
2022-09-21T17:50:22.350Z,5.97
2022-09-21T17:53:08.652Z,2.05
2022-09-21T17:55:45.118Z,3.58
2022-09-21T17:58:56.393Z,2.80
2022-09-21T18:01:35.351Z,5.25
2022-09-21T18:04:04.018Z,6.40
2022-09-21T18:06:36.138Z,1.52
2022-09-21T18:09:04.082Z,10.88
2022-09-21T18:11:54.351Z,11.55
2022-09-21T18:14:57.329Z,18.90
2022-09-21T18:17:42.554Z,6.75
2022-09-21T18:20:47.411Z,20.63
2022-09-21T18:23:21.629Z,17.98
2022-09-21T18:25:55.897Z,22.35
2022-09-21T18:28:43.684Z,9.73
2022-09-21T18:31:45.701Z,12.90
2022-09-21T18:34:46.690Z,9.15
2022-09-21T18:37:59.710Z,3.25
2022-09-21T18:41:04.747Z,6.70
2022-09-21T18:43:50.301Z,5.35
2022-09-21T18:47:01.859Z,8.32
2022-09-21T18:50:07.196Z,6.25
2022-09-21T18:52:50.299Z,5.50
2022-09-21T18:55:30.706Z,3.30
2022-09-21T18:58:01.069Z,2.35
2022-09-21T19:00:34.495Z,2.30
2022-09-21T19:03:19.451Z,5.10
2022-09-21T19:06:00.551Z,4.38
2022-09-21T19:08:44.493Z,2.95
2022-09-21T19:11:43.831Z,5.13
2022-09-21T19:14:22.779Z,7.53
2022-09-21T19:17:11.645Z,5.80
2022-09-21T19:20:30.518Z,6.47
2022-09-21T19:23:24.802Z,7.68
2022-09-21T19:26:04.842Z,8.45
2022-09-21T19:28:51.443Z,8.50
2022-09-21T19:31:19.568Z,8.48
2022-09-21T19:33:51.498Z,13.07
2022-09-21T19:36:19.960Z,16.85
2022-09-21T19:38:47.605Z,17.70
2022-09-21T19:41:38.666Z,20.02
2022-09-21T19:44:43.138Z,21.42
2022-09-21T19:47:19.110Z,14.50
2022-09-21T19:49:56.479Z,21.33
2022-09-21T19:52:31.565Z,16.75
2022-09-21T19:55:17.933Z,26.95
2022-09-21T19:58:04.232Z,16.95
2022-09-21T20:00:31.737Z,17.40
2022-09-21T20:03:33.404Z,20.35
2022-09-21T20:06:14.462Z,4.38
2022-09-21T20:08:53.784Z,6.18
2022-09-21T20:14:39.101Z,5.53
2022-09-21T20:17:12.874Z,9.20
2022-09-21T20:20:07.519Z,11.80
2022-09-21T20:22:38.618Z,3.40
2022-09-21T20:25:25.665Z,5.60
2022-09-21T20:27:58.639Z,11.13
2022-09-21T20:30:32.741Z,6.53
2022-09-21T20:33:16.140Z,8.68
2022-09-21T20:35:43.640Z,6.65
2022-09-21T20:38:10.957Z,9.55
2022-09-21T20:40:39.676Z,10.48
2022-09-21T20:43:08.821Z,10.20
2022-09-21T20:45:36.173Z,10.27
2022-09-21T20:48:12.664Z,11.07
2022-09-21T20:50:45.631Z,9.70
2022-09-21T20:53:13.535Z,8.05
2022-09-21T20:55:41.460Z,12.95
2022-09-21T20:58:12.132Z,12.45
2022-09-21T21:00:39.395Z,11.02
2022-09-21T21:03:06.541Z,8.05
2022-09-21T21:05:33.775Z,9.10
2022-09-21T21:08:04.017Z,9.27
2022-09-21T21:10:32.129Z,7.78
2022-09-21T21:12:59.519Z,9.10
2022-09-21T21:15:27.080Z,10.18
2022-09-21T21:17:54.341Z,14.07
2022-09-21T21:20:21.617Z,12.00
2022-09-21T21:22:50.101Z,10.23
2022-09-21T21:25:17.848Z,13.00
2022-09-21T21:27:44.907Z,9.57
2022-09-21T21:30:12.560Z,9.55
2022-09-21T21:32:39.732Z,10.73
2022-09-21T21:35:07.409Z,19.45
2022-09-21T21:37:34.492Z,11.82
2022-09-21T21:40:02.656Z,18.17
2022-09-21T21:42:29.760Z,8.20
2022-09-21T21:44:56.876Z,8.30
2022-09-21T21:47:40.893Z,12.65
2022-09-21T21:50:10.253Z,12.65
2022-09-21T21:52:37.729Z,7.47
2022-09-21T21:55:05.860Z,10.45
2022-09-21T21:57:33.056Z,11.70
2022-09-21T22:00:00.327Z,8.02
2022-09-21T22:02:28.834Z,13.90
2022-09-21T22:04:56.111Z,6.17
2022-09-21T22:07:23.384Z,11.75
2022-09-21T22:09:50.576Z,10.18
2022-09-21T22:12:17.697Z,8.25
2022-09-21T22:14:45.694Z,10.93
2022-09-21T22:17:13.824Z,14.85
2022-09-21T22:19:41.840Z,11.35
2022-09-21T22:22:09.020Z,12.57
2022-09-21T22:24:36.179Z,10.85
2022-09-21T22:27:03.413Z,10.88
2022-09-21T22:29:30.541Z,7.18
2022-09-21T22:31:57.689Z,10.65
2022-09-21T22:34:24.937Z,11.70
2022-09-21T22:36:53.206Z,7.57
2022-09-21T22:39:20.687Z,8.40
2022-09-21T22:41:47.740Z,12.05
2022-09-21T22:44:15.217Z,10.43
2022-09-21T22:46:42.274Z,8.80
2022-09-21T22:49:09.472Z,7.38
2022-09-21T22:51:37.368Z,10.85
2022-09-21T22:54:04.647Z,11.27
2022-09-21T22:56:32.846Z,9.02
2022-09-21T22:59:03.404Z,8.95
2022-09-21T23:01:40.327Z,9.95
2022-09-21T23:04:12.132Z,9.10
2022-09-21T23:06:42.635Z,14.02
2022-09-21T23:09:18.878Z,12.55
2022-09-21T23:11:52.764Z,8.27
2022-09-21T23:14:22.198Z,10.95
2022-09-21T23:19:17.062Z,9.80
2022-09-21T23:21:49.009Z,10.18
2022-09-21T23:24:16.955Z,8.68
2022-09-21T23:26:44.946Z,10.70
2022-09-21T23:29:14.637Z,10.73
2022-09-21T23:31:45.575Z,6.07
2022-09-21T23:34:14.659Z,7.53
2022-09-21T23:36:42.878Z,7.30
2022-09-21T23:39:13.696Z,8.15
2022-09-21T23:41:41.073Z,7.63
2022-09-21T23:44:08.383Z,8.27
2022-09-21T23:46:38.695Z,8.70
2022-09-21T23:49:06.434Z,11.50
2022-09-21T23:51:34.117Z,8.32
2022-09-21T23:54:01.762Z,7.35
2022-09-21T23:56:29.664Z,9.48
2022-09-21T23:58:57.595Z,7.47
